Time;durP1;ratioP1;P1;durP2;ratioP2;P2;SDS_P1;SDS_P2;PMS_P1;PMS_P2;Temp;Humidity;BMP_temperature;BMP_pressure;BME280_temperature;BME280_humidity;BME280_pressure;Samples;Min_cycle;Max_cycle;Signal;HPM_P1;HPM_P2
2021/04/06 00:03:58;;;;;;;;;39.25;35.50;;;;;;;;12100557;29;8867;-52
2021/04/06 00:10:05;;;;;;;;;31.00;30.75;;;;;;;;12098787;29;8863;-51
2021/04/06 00:16:07;;;;;;;;;32.25;28.00;;;;;;;;12100409;29;8847;-50
2021/04/06 00:22:12;;;;;;;;;38.00;36.75;;;;;;;;12097840;29;8905;-51
2021/04/06 00:28:26;;;;;;;;;34.50;30.00;;;;;;;;12097540;29;8871;-53
2021/04/06 00:34:31;;;;;;;;;32.00;27.50;;;;;;;;12098782;29;8885;-52
2021/04/06 00:40:36;;;;;;;;;23.50;21.75;;;;;;;;12112243;29;8875;-52
2021/04/06 00:46:44;;;;;;;;;32.25;29.25;;;;;;;;12099186;29;9648;-51
2021/04/06 00:52:46;;;;;;;;;31.00;28.50;;;;;;;;12097762;29;8905;-49
2021/04/06 00:58:51;;;;;;;;;30.75;28.50;;;;;;;;12097858;29;8855;-48
2021/04/06 01:04:52;;;;;;;;;28.75;27.25;;;;;;;;12098039;29;9688;-50
2021/04/06 01:10:55;;;;;;;;;32.75;29.75;;;;;;;;12097076;29;8870;-54
2021/04/06 01:16:56;;;;;;;;;35.50;31.75;;;;;;;;12098386;29;8863;-48
2021/04/06 01:22:58;;;;;;;;;34.50;33.25;;;;;;;;12104027;29;8874;-52
2021/04/06 01:29:04;;;;;;;;;41.75;36.00;;;;;;;;12107111;29;8850;-51
2021/04/06 01:35:07;;;;;;;;;37.50;35.00;;;;;;;;12106604;29;8863;-50
2021/04/06 01:41:09;;;;;;;;;41.50;33.75;;;;;;;;12105088;29;8871;-50
2021/04/06 01:47:16;;;;;;;;;42.75;38.25;;;;;;;;12106727;29;8879;-52
2021/04/06 01:53:18;;;;;;;;;37.75;35.25;;;;;;;;12105440;29;8889;-50
2021/04/06 01:59:37;;;;;;;;;40.00;36.50;;;;;;;;12105044;29;8871;-49
2021/04/06 02:05:42;;;;;;;;;43.75;34.50;;;;;;;;12104860;29;8990;-47
2021/04/06 02:11:45;;;;;;;;;35.50;34.75;;;;;;;;12118284;29;8890;-50
2021/04/06 02:17:51;;;;;;;;;44.75;37.25;;;;;;;;12105945;29;8870;-51
2021/04/06 02:23:53;;;;;;;;;37.25;35.00;;;;;;;;12104172;29;9598;-48
2021/04/06 02:29:58;;;;;;;;;41.00;34.50;;;;;;;;12104201;29;8869;-50
2021/04/06 02:35:59;;;;;;;;;33.75;32.50;;;;;;;;12103722;29;8878;-53
2021/04/06 02:42:01;;;;;;;;;50.25;44.50;;;;;;;;12102795;29;8887;-49
2021/04/06 02:48:10;;;;;;;;;42.00;41.75;;;;;;;;12102845;29;8858;-50
2021/04/06 02:54:13;;;;;;;;;43.00;40.25;;;;;;;;12102680;29;8863;-51
2021/04/06 03:00:27;;;;;;;;;35.75;32.50;;;;;;;;12103628;29;8862;-52
2021/04/06 03:06:33;;;;;;;;;36.00;32.75;;;;;;;;12101803;29;8866;-49
2021/04/06 03:12:34;;;;;;;;;36.50;30.25;;;;;;;;12102353;29;8886;-50
2021/04/06 03:18:38;;;;;;;;;34.75;33.75;;;;;;;;12102663;29;8875;-49
2021/04/06 03:24:40;;;;;;;;;41.00;33.00;;;;;;;;12100878;29;8870;-50
2021/04/06 03:30:44;;;;;;;;;44.25;36.00;;;;;;;;12102143;29;8862;-49
2021/04/06 03:36:46;;;;;;;;;35.50;33.75;;;;;;;;12100322;29;8882;-49
2021/04/06 03:42:47;;;;;;;;;56.00;41.25;;;;;;;;12100852;29;8897;-49
2021/04/06 03:48:50;;;;;;;;;35.50;34.50;;;;;;;;12099481;29;8905;-49
2021/04/06 03:54:52;;;;;;;;;39.00;36.50;;;;;;;;12100143;29;8858;-50
2021/04/06 04:07:37;;;;;;;;;41.25;36.75;;;;;;;;11731775;27;9057;-47
2021/04/06 04:13:39;;;;;;;;;38.00;32.00;;;;;;;;11981962;29;8884;-50
2021/04/06 04:19:41;;;;;;;;;34.75;33.50;;;;;;;;11964436;29;8841;-49
2021/04/06 04:25:42;;;;;;;;;46.00;41.50;;;;;;;;11979927;29;8876;-49
2021/04/06 04:31:47;;;;;;;;;41.75;36.25;;;;;;;;11983063;29;8878;-52
2021/04/06 04:37:48;;;;;;;;;38.75;37.75;;;;;;;;12003145;29;8910;-49
2021/04/06 04:43:49;;;;;;;;;38.00;35.75;;;;;;;;11961805;29;8907;-50
2021/04/06 04:49:51;;;;;;;;;37.00;35.00;;;;;;;;11962000;29;9617;-51
2021/04/06 04:55:52;;;;;;;;;37.25;37.25;;;;;;;;11961134;29;8872;-50
2021/04/06 05:01:53;;;;;;;;;43.00;36.00;;;;;;;;11961634;29;8876;-51
2021/04/06 05:07:55;;;;;;;;;42.50;38.50;;;;;;;;11963901;29;8892;-51
2021/04/06 05:13:56;;;;;;;;;52.75;42.75;;;;;;;;11970345;29;8906;-50
2021/04/06 05:19:58;;;;;;;;;42.75;37.50;;;;;;;;11962011;29;8860;-52
2021/04/06 05:25:59;;;;;;;;;48.00;44.00;;;;;;;;11961541;29;9002;-53
2021/04/06 05:32:01;;;;;;;;;48.00;43.75;;;;;;;;11961335;29;8864;-53
2021/04/06 05:38:03;;;;;;;;;46.25;44.00;;;;;;;;11962265;29;8864;-50
2021/04/06 05:44:05;;;;;;;;;46.75;41.25;;;;;;;;11960485;29;8899;-49
2021/04/06 05:50:07;;;;;;;;;47.50;43.00;;;;;;;;11960695;29;8869;-54
2021/04/06 05:56:09;;;;;;;;;44.00;40.25;;;;;;;;11961932;29;8868;-56
2021/04/06 06:02:10;;;;;;;;;41.00;36.25;;;;;;;;11973912;29;9654;-54
2021/04/06 06:08:15;;;;;;;;;50.00;43.25;;;;;;;;11965834;29;8864;-49
2021/04/06 06:14:27;;;;;;;;;43.75;39.75;;;;;;;;11982849;29;8876;-57
2021/04/06 06:20:28;;;;;;;;;52.00;43.25;;;;;;;;11967946;29;8879;-53
2021/04/06 06:26:30;;;;;;;;;44.50;41.75;;;;;;;;11967275;29;9022;-55
2021/04/06 06:32:31;;;;;;;;;42.25;36.50;;;;;;;;12003341;29;8870;-53
2021/04/06 06:38:35;;;;;;;;;28.25;27.00;;;;;;;;11994293;29;9623;-54
2021/04/06 06:44:38;;;;;;;;;40.75;36.75;;;;;;;;12011458;29;8874;-53
2021/04/06 06:50:48;;;;;;;;;39.75;35.25;;;;;;;;12011880;29;9685;-48
2021/04/06 06:56:49;;;;;;;;;31.75;31.75;;;;;;;;12010982;29;8857;-54
2021/04/06 07:02:51;;;;;;;;;40.00;33.50;;;;;;;;12009395;29;8878;-54
2021/04/06 07:08:52;;;;;;;;;43.75;39.00;;;;;;;;12011978;29;8873;-52
2021/04/06 07:14:54;;;;;;;;;43.75;36.25;;;;;;;;11994572;29;9971;-50
2021/04/06 07:21:02;;;;;;;;;29.25;29.00;;;;;;;;11965588;29;8879;-50
2021/04/06 07:27:05;;;;;;;;;28.75;28.75;;;;;;;;11966101;29;8864;-52
2021/04/06 07:33:07;;;;;;;;;36.75;32.25;;;;;;;;11963710;29;8864;-53
2021/04/06 07:39:13;;;;;;;;;47.75;40.25;;;;;;;;11963861;29;8864;-53
2021/04/06 07:45:23;;;;;;;;;40.00;37.50;;;;;;;;11964576;29;8888;-53
2021/04/06 07:51:27;;;;;;;;;36.50;31.75;;;;;;;;11991419;29;8984;-57
2021/04/06 07:57:51;;;;;;;;;33.75;32.00;;;;;;;;12008698;29;8876;-55
2021/04/06 08:03:52;;;;;;;;;39.50;35.25;;;;;;;;11963588;29;8880;-56
2021/04/06 08:09:58;;;;;;;;;46.25;38.00;;;;;;;;11964702;29;8872;-49
2021/04/06 08:16:16;;;;;;;;;34.25;33.00;;;;;;;;11977041;29;8963;-52
2021/04/06 08:22:29;;;;;;;;;17.00;16.75;;;;;;;;11975798;29;8871;-54
2021/04/06 08:28:34;;;;;;;;;37.25;35.25;;;;;;;;11992750;29;8872;-51
2021/04/06 08:34:47;;;;;;;;;35.00;30.75;;;;;;;;11963510;29;8996;-51
2021/04/06 08:41:05;;;;;;;;;27.50;25.50;;;;;;;;11996206;29;8861;-52
2021/04/06 08:47:07;;;;;;;;;34.25;32.25;;;;;;;;11961560;29;8879;-53
2021/04/06 08:53:10;;;;;;;;;26.25;23.25;;;;;;;;12006450;29;8992;-53
2021/04/06 08:59:32;;;;;;;;;17.33;16.00;;;;;;;;12007043;29;8880;-57
2021/04/06 09:05:34;;;;;;;;;22.67;22.33;;;;;;;;12007720;29;9047;-55
2021/04/06 09:11:38;;;;;;;;;27.00;25.33;;;;;;;;12006582;29;9036;-54
2021/04/06 09:17:40;;;;;;;;;24.67;23.67;;;;;;;;11973968;29;8891;-51
2021/04/06 09:23:42;;;;;;;;;27.33;22.00;;;;;;;;11961795;29;8872;-54
2021/04/06 09:29:47;;;;;;;;;24.00;21.33;;;;;;;;11961059;29;8872;-54
2021/04/06 09:35:53;;;;;;;;;19.00;19.00;;;;;;;;11976100;29;9622;-56
2021/04/06 09:41:55;;;;;;;;;19.67;18.00;;;;;;;;11964317;29;8887;-53
2021/04/06 09:47:58;;;;;;;;;18.33;17.67;;;;;;;;11969814;29;8887;-51
2021/04/06 09:54:01;;;;;;;;;18.33;17.33;;;;;;;;11968956;29;9618;-55
2021/04/06 10:00:07;;;;;;;;;16.33;16.33;;;;;;;;11980176;29;8884;-55
2021/04/06 10:06:09;;;;;;;;;18.33;15.33;;;;;;;;11982813;29;8884;-53
2021/04/06 10:12:12;;;;;;;;;18.67;16.00;;;;;;;;11977943;29;9611;-53
2021/04/06 10:18:15;;;;;;;;;17.00;17.00;;;;;;;;11996401;29;8872;-57
2021/04/06 10:24:25;;;;;;;;;17.33;13.67;;;;;;;;12005696;29;8872;-53
2021/04/06 10:30:35;;;;;;;;;16.00;16.00;;;;;;;;11966974;29;8864;-55
2021/04/06 10:36:37;;;;;;;;;18.00;17.33;;;;;;;;11968405;29;8972;-54
2021/04/06 10:42:38;;;;;;;;;15.00;15.00;;;;;;;;11966326;29;8903;-50
2021/04/06 10:48:44;;;;;;;;;17.67;14.00;;;;;;;;11986696;29;8873;-54
2021/04/06 10:54:51;;;;;;;;;6.33;3.00;;;;;;;;11982651;29;8892;-54
2021/04/06 11:01:11;;;;;;;;;15.00;14.00;;;;;;;;11988136;29;8875;-54
2021/04/06 11:07:13;;;;;;;;;14.00;14.00;;;;;;;;11965931;29;8910;-54
2021/04/06 11:13:14;;;;;;;;;11.67;11.67;;;;;;;;11986076;29;8880;-55
2021/04/06 11:19:25;;;;;;;;;14.67;13.67;;;;;;;;11964121;29;8868;-53
2021/04/06 11:25:26;;;;;;;;;13.67;13.67;;;;;;;;11991236;29;8872;-53
2021/04/06 11:31:29;;;;;;;;;14.00;14.00;;;;;;;;11964962;29;8975;-53
2021/04/06 11:37:30;;;;;;;;;12.33;12.33;;;;;;;;11965328;29;8908;-57
2021/04/06 11:43:32;;;;;;;;;13.67;12.33;;;;;;;;11964689;29;8899;-52
2021/04/06 11:49:34;;;;;;;;;12.00;12.00;;;;;;;;11965792;29;8872;-55
2021/04/06 11:55:35;;;;;;;;;11.00;11.00;;;;;;;;11965130;29;8876;-53
2021/04/06 12:01:38;;;;;;;;;13.67;12.67;;;;;;;;11964510;29;8884;-54
2021/04/06 12:07:40;;;;;;;;;13.00;12.67;;;;;;;;11964046;29;8912;-55
2021/04/06 12:13:42;;;;;;;;;16.67;15.00;;;;;;;;11970921;29;8888;-54
2021/04/06 12:19:43;;;;;;;;;15.00;14.67;;;;;;;;11964956;29;8876;-51
2021/04/06 12:25:45;;;;;;;;;15.67;15.67;;;;;;;;11962406;29;8868;-54
2021/04/06 12:31:47;;;;;;;;;13.00;9.00;;;;;;;;11963245;29;8879;-56
2021/04/06 12:37:48;;;;;;;;;17.00;15.00;;;;;;;;11963562;29;8872;-53
2021/04/06 12:43:50;;;;;;;;;16.67;14.67;;;;;;;;11962193;29;8888;-59
2021/04/06 12:49:51;;;;;;;;;15.00;13.67;;;;;;;;11963861;29;8971;-57
2021/04/06 12:55:55;;;;;;;;;13.67;13.00;;;;;;;;11963593;29;8882;-49
2021/04/06 13:01:58;;;;;;;;;13.00;13.00;;;;;;;;11971315;29;8872;-51
2021/04/06 13:07:59;;;;;;;;;12.00;11.00;;;;;;;;11962843;29;9685;-52
2021/04/06 13:14:03;;;;;;;;;12.00;12.00;;;;;;;;11975295;29;8935;-53
2021/04/06 13:20:10;;;;;;;;;11.00;11.00;;;;;;;;11967989;29;8919;-54
2021/04/06 13:26:11;;;;;;;;;13.67;12.67;;;;;;;;11968970;29;8864;-52
2021/04/06 13:32:13;;;;;;;;;12.00;10.00;;;;;;;;11970613;29;8887;-54
2021/04/06 13:38:14;;;;;;;;;11.67;11.00;;;;;;;;11970870;29;8954;-54
2021/04/06 13:44:15;;;;;;;;;12.33;10.00;;;;;;;;11968887;29;8884;-51
2021/04/06 13:50:18;;;;;;;;;10.67;10.00;;;;;;;;11970685;29;8849;-50
2021/04/06 13:56:20;;;;;;;;;10.33;9.67;;;;;;;;11968667;29;8872;-51
2021/04/06 14:02:21;;;;;;;;;13.00;12.67;;;;;;;;11987061;29;8895;-51
2021/04/06 14:08:23;;;;;;;;;16.00;14.67;;;;;;;;11999656;29;8861;-53
2021/04/06 14:14:25;;;;;;;;;11.67;10.00;;;;;;;;11994246;29;8876;-54
2021/04/06 14:20:29;;;;;;;;;11.00;10.00;;;;;;;;11968914;29;8875;-55
2021/04/06 14:26:30;;;;;;;;;9.33;9.00;;;;;;;;11966887;29;8884;-57
2021/04/06 14:32:32;;;;;;;;;13.00;13.00;;;;;;;;11990045;29;8892;-51
2021/04/06 14:38:33;;;;;;;;;14.00;11.00;;;;;;;;12014662;29;9619;-57
2021/04/06 14:44:36;;;;;;;;;10.00;10.00;;;;;;;;12012460;29;9626;-51
2021/04/06 14:50:37;;;;;;;;;11.67;11.67;;;;;;;;12012905;29;8924;-51
2021/04/06 14:56:40;;;;;;;;;14.33;11.33;;;;;;;;11994915;29;8864;-55
2021/04/06 15:02:43;;;;;;;;;10.00;10.00;;;;;;;;11965624;29;8926;-52
2021/04/06 15:08:45;;;;;;;;;11.33;11.33;;;;;;;;11968246;29;8934;-53
2021/04/06 15:14:46;;;;;;;;;11.67;10.33;;;;;;;;11973167;29;8947;-49
2021/04/06 15:20:48;;;;;;;;;11.67;9.67;;;;;;;;11966423;29;8860;-55
2021/04/06 15:26:50;;;;;;;;;13.00;11.00;;;;;;;;11965792;29;8872;-52
2021/04/06 15:32:52;;;;;;;;;13.00;10.33;;;;;;;;11964531;29;9717;-49
2021/04/06 15:38:53;;;;;;;;;12.00;12.00;;;;;;;;11965793;29;9614;-49
2021/04/06 15:44:58;;;;;;;;;9.33;9.33;;;;;;;;11965257;29;8883;-52
2021/04/06 15:51:01;;;;;;;;;12.00;12.00;;;;;;;;11965111;29;8856;-55
2021/04/06 15:57:07;;;;;;;;;18.00;14.33;;;;;;;;11964875;29;8868;-49
2021/04/06 16:03:09;;;;;;;;;13.67;13.00;;;;;;;;11972990;29;8874;-51
2021/04/06 16:09:10;;;;;;;;;12.67;12.00;;;;;;;;12010816;29;8912;-56
2021/04/06 16:15:13;;;;;;;;;16.00;16.00;;;;;;;;12007719;29;8866;-54
2021/04/06 16:21:15;;;;;;;;;16.00;13.67;;;;;;;;12008745;29;9028;-50
2021/04/06 16:27:17;;;;;;;;;15.67;15.67;;;;;;;;12007698;29;8896;-51
2021/04/06 16:33:23;;;;;;;;;21.00;20.25;;;;;;;;12006775;29;9686;-52
2021/04/06 16:39:24;;;;;;;;;22.67;21.00;;;;;;;;12008457;29;8888;-52
2021/04/06 16:45:26;;;;;;;;;24.33;18.67;;;;;;;;12006185;29;8889;-54
2021/04/06 16:51:28;;;;;;;;;30.00;27.75;;;;;;;;12007858;29;8904;-52
2021/04/06 16:57:29;;;;;;;;;23.25;23.00;;;;;;;;12006759;29;8857;-53
2021/04/06 17:03:32;;;;;;;;;19.67;19.67;;;;;;;;12006318;29;8909;-52
2021/04/06 17:09:33;;;;;;;;;21.67;21.00;;;;;;;;12006470;29;9678;-49
2021/04/06 17:15:35;;;;;;;;;23.75;23.00;;;;;;;;12005956;29;8854;-52
2021/04/06 17:21:36;;;;;;;;;20.67;19.00;;;;;;;;12007792;29;8865;-50
2021/04/06 17:27:39;;;;;;;;;21.50;20.25;;;;;;;;12006749;29;9646;-52
2021/04/06 17:33:41;;;;;;;;;24.75;24.25;;;;;;;;12006288;29;9789;-50
2021/04/06 17:39:46;;;;;;;;;23.33;21.00;;;;;;;;12007228;29;8865;-53
2021/04/06 17:45:48;;;;;;;;;23.33;21.33;;;;;;;;12006158;29;8987;-51
2021/04/06 17:51:49;;;;;;;;;27.00;23.25;;;;;;;;12006527;29;8873;-50
2021/04/06 17:57:52;;;;;;;;;25.75;23.50;;;;;;;;12005354;29;8904;-50
2021/04/06 18:03:54;;;;;;;;;26.75;25.75;;;;;;;;12009508;29;8890;-50
2021/04/06 18:09:55;;;;;;;;;28.00;26.25;;;;;;;;12013242;29;8906;-51
2021/04/06 18:15:56;;;;;;;;;26.00;25.00;;;;;;;;12012491;29;8861;-52
2021/04/06 18:21:58;;;;;;;;;30.50;27.50;;;;;;;;12013586;29;8884;-53
2021/04/06 18:27:59;;;;;;;;;27.50;26.50;;;;;;;;11974964;29;8879;-52
2021/04/06 18:34:02;;;;;;;;;27.25;25.75;;;;;;;;11967225;29;8945;-51
2021/04/06 18:40:05;;;;;;;;;40.50;30.50;;;;;;;;11969113;29;8875;-53
2021/04/06 18:46:10;;;;;;;;;28.50;28.50;;;;;;;;12008889;29;8893;-50
2021/04/06 18:52:12;;;;;;;;;30.75;28.75;;;;;;;;12012981;29;9651;-49
2021/04/06 18:58:14;;;;;;;;;33.75;29.25;;;;;;;;12012362;29;8878;-54
2021/04/06 19:04:16;;;;;;;;;27.50;27.50;;;;;;;;12010574;29;8885;-52
2021/04/06 19:10:22;;;;;;;;;34.25;31.25;;;;;;;;12012413;29;8876;-53
2021/04/06 19:16:25;;;;;;;;;37.00;35.75;;;;;;;;12009380;29;8881;-55
2021/04/06 19:22:26;;;;;;;;;45.25;37.50;;;;;;;;12011357;29;8877;-55
2021/04/06 19:28:28;;;;;;;;;39.25;37.25;;;;;;;;12009186;29;9730;-52
2021/04/06 19:34:29;;;;;;;;;39.50;36.75;;;;;;;;11965385;29;8943;-51
2021/04/06 19:40:31;;;;;;;;;47.00;42.00;;;;;;;;11966754;29;8912;-49
2021/04/06 19:46:33;;;;;;;;;31.75;28.50;;;;;;;;11964688;29;8876;-51
2021/04/06 19:52:35;;;;;;;;;41.25;34.50;;;;;;;;11965299;29;8876;-53
2021/04/06 19:58:39;;;;;;;;;39.50;35.75;;;;;;;;11963783;29;9644;-52
2021/04/06 20:04:40;;;;;;;;;39.50;37.00;;;;;;;;11962323;29;8927;-48
2021/04/06 20:10:44;;;;;;;;;48.75;41.50;;;;;;;;11964932;29;8894;-49
2021/04/06 20:16:45;;;;;;;;;43.00;36.75;;;;;;;;11963081;29;8864;-52
2021/04/06 20:22:47;;;;;;;;;41.25;36.25;;;;;;;;11997604;29;8953;-50
2021/04/06 20:28:50;;;;;;;;;45.25;39.50;;;;;;;;12007885;29;9518;-51
2021/04/06 20:34:52;;;;;;;;;34.00;34.00;;;;;;;;12007153;29;9770;-49
2021/04/06 20:40:53;;;;;;;;;43.25;38.00;;;;;;;;12009320;29;9402;-48
2021/04/06 20:46:55;;;;;;;;;39.75;36.75;;;;;;;;12006518;29;8885;-53
2021/04/06 20:52:56;;;;;;;;;39.00;35.75;;;;;;;;12008835;29;8865;-53
2021/04/06 20:58:58;;;;;;;;;39.50;35.50;;;;;;;;12006691;29;8873;-49
2021/04/06 21:05:03;;;;;;;;;42.50;36.75;;;;;;;;12006590;29;8924;-48
2021/04/06 21:11:04;;;;;;;;;35.50;33.25;;;;;;;;12007697;29;8893;-47
2021/04/06 21:17:06;;;;;;;;;36.75;35.00;;;;;;;;12005630;29;8858;-48
2021/04/06 21:23:11;;;;;;;;;38.25;35.25;;;;;;;;12008101;29;8892;-49
2021/04/06 21:29:13;;;;;;;;;40.75;36.50;;;;;;;;12005827;29;9700;-52
2021/04/06 21:35:15;;;;;;;;;34.75;33.50;;;;;;;;12005880;29;8898;-52
2021/04/06 21:41:21;;;;;;;;;31.50;30.50;;;;;;;;12015908;29;8862;-51
2021/04/06 21:47:23;;;;;;;;;34.75;32.75;;;;;;;;12014357;29;8874;-50
2021/04/06 21:53:25;;;;;;;;;34.00;31.50;;;;;;;;12014958;29;8900;-51
2021/04/06 21:59:26;;;;;;;;;35.75;32.50;;;;;;;;12013750;29;9719;-52
2021/04/06 22:05:28;;;;;;;;;38.25;33.50;;;;;;;;12013290;29;8885;-50
2021/04/06 22:11:30;;;;;;;;;35.75;32.50;;;;;;;;12015042;29;8901;-52
2021/04/06 22:17:31;;;;;;;;;37.75;34.00;;;;;;;;12012954;29;8886;-50
2021/04/06 22:23:33;;;;;;;;;40.00;35.75;;;;;;;;12014028;29;8861;-49
2021/04/06 22:29:35;;;;;;;;;35.25;32.75;;;;;;;;12012253;29;10220;-48
2021/04/06 22:35:37;;;;;;;;;37.50;34.50;;;;;;;;12011756;29;8874;-48
2021/04/06 22:41:38;;;;;;;;;31.00;30.50;;;;;;;;12013332;29;8862;-51
2021/04/06 22:47:40;;;;;;;;;38.50;35.50;;;;;;;;12011526;29;8900;-52
2021/04/06 22:53:41;;;;;;;;;33.75;29.75;;;;;;;;12011407;29;9012;-53
2021/04/06 22:59:43;;;;;;;;;37.50;34.00;;;;;;;;12011970;29;8862;-52
2021/04/06 23:05:45;;;;;;;;;32.00;29.50;;;;;;;;12010233;29;8862;-50
2021/04/06 23:11:46;;;;;;;;;35.00;28.25;;;;;;;;12012700;29;9678;-47
2021/04/06 23:17:57;;;;;;;;;18.25;15.25;;;;;;;;12011142;29;8869;-51
2021/04/06 23:23:59;;;;;;;;;30.50;30.00;;;;;;;;12011833;29;8870;-51
2021/04/06 23:30:01;;;;;;;;;34.00;28.00;;;;;;;;12008526;29;8885;-51
2021/04/06 23:36:02;;;;;;;;;29.75;25.50;;;;;;;;12009223;29;8892;-51
2021/04/06 23:42:04;;;;;;;;;30.00;27.50;;;;;;;;12010562;29;8873;-51
2021/04/06 23:48:07;;;;;;;;;35.75;29.25;;;;;;;;12009537;29;8877;-47
2021/04/06 23:54:08;;;;;;;;;24.00;24.00;;;;;;;;12010388;29;8861;-50
